Time;durP1;ratioP1;P1;durP2;ratioP2;P2;SDS_P1;SDS_P2;PMS_P1;PMS_P2;Temp;Humidity;BMP_temperature;BMP_pressure;BME280_temperature;BME280_humidity;BME280_pressure;Samples;Min_cycle;Max_cycle;Signal;HPM_P1;HPM_P2
2022/02/10 00:22:13;;;;;;;11.52;7.50;;;;;;;7.05;65.70;101022.94;5114261;27;20482;-78
2022/02/10 00:35:43;;;;;;;10.52;7.13;;;;;;;6.95;65.85;101025.41;5137833;27;20026;-77
2022/02/10 00:38:08;;;;;;;12.73;6.57;;;;;;;6.95;65.71;101014.03;5137307;27;20313;-77
2022/02/10 00:40:36;;;;;;;11.75;7.35;;;;;;;7.01;65.29;101013.59;5137124;27;20566;-77
2022/02/10 00:43:04;;;;;;;15.68;6.97;;;;;;;6.85;66.93;101027.00;5136771;27;20038;-79
2022/02/10 00:45:32;;;;;;;14.18;7.32;;;;;;;6.82;66.42;101008.78;5149380;27;20031;-79
2022/02/10 00:48:08;;;;;;;13.27;6.57;;;;;;;6.92;65.94;101025.59;5136964;27;20351;-76
2022/02/10 00:50:35;;;;;;;11.68;6.90;;;;;;;6.85;66.80;101018.25;5134557;27;20026;-78
2022/02/10 00:53:09;;;;;;;11.85;7.38;;;;;;;7.00;65.59;101025.06;5136425;27;20317;-77
2022/02/10 00:55:37;;;;;;;11.02;6.88;;;;;;;7.10;65.77;101026.09;5137269;27;20034;-78
2022/02/10 00:58:07;;;;;;;10.20;7.03;;;;;;;6.85;65.85;101015.63;5137406;27;20377;-77
2022/02/10 01:31:15;;;;;;;15.15;7.47;;;;;;;6.88;64.65;101026.78;5123316;27;20042;-76
2022/02/10 01:33:43;;;;;;;10.95;6.60;;;;;;;6.98;63.92;101019.06;5136149;27;20094;-76
2022/02/10 01:36:08;;;;;;;10.43;6.65;;;;;;;6.76;65.08;101022.34;5136198;27;20014;-76
2022/02/10 01:38:34;;;;;;;9.20;5.90;;;;;;;6.81;64.74;101007.09;5133940;27;20380;-74
2022/02/10 01:41:33;;;;;;;10.43;6.30;;;;;;;6.96;63.95;101023.59;5135134;27;20035;-75
2022/02/10 02:03:25;;;;;;;14.98;7.35;;;;;;;6.86;63.13;101007.59;5070431;28;20035;-78
2022/02/10 02:06:07;;;;;;;12.07;7.05;;;;;;;6.87;62.36;101011.94;5111373;27;20095;-77
2022/02/10 02:08:36;;;;;;;16.83;7.38;;;;;;;6.61;63.75;101003.22;5134845;27;20023;-78
2022/02/10 02:11:02;;;;;;;15.02;8.27;;;;;;;6.89;62.60;101006.56;5134953;27;21247;-79
2022/02/10 02:13:28;;;;;;;14.75;7.85;;;;;;;6.83;62.35;100996.44;5135912;27;20317;-76
2022/02/10 02:15:54;;;;;;;12.27;7.03;;;;;;;7.00;62.19;101019.81;5135343;27;20277;-75
2022/02/10 02:18:20;;;;;;;11.35;5.68;;;;;;;7.01;61.40;101013.59;5133829;27;20058;-75
2022/02/10 02:20:47;;;;;;;13.57;6.65;;;;;;;6.87;62.31;101013.72;5137080;27;20448;-78
2022/02/10 02:23:14;;;;;;;26.83;11.82;;;;;;;6.94;62.26;101014.97;5138748;27;20092;-77
2022/02/10 02:25:40;;;;;;;16.52;8.77;;;;;;;7.11;61.89;101017.25;5139574;27;20101;-77
2022/02/10 02:28:08;;;;;;;15.90;8.23;;;;;;;7.01;62.37;101011.78;5138478;27;20015;-77
2022/02/10 03:08:52;;;;;;;33.38;12.65;;;;;;;6.54;62.26;101030.06;5143112;27;20343;-76
2022/02/10 03:11:19;;;;;;;13.15;7.32;;;;;;;5.99;63.15;101021.44;5141679;27;20015;-73
2022/02/10 03:13:50;;;;;;;13.25;8.18;;;;;;;5.85;64.45;101015.38;5144522;27;20038;-74
2022/02/10 03:19:07;;;;;;;17.92;8.38;;;;;;;5.91;63.95;101015.00;5138880;27;20011;-74
2022/02/10 04:00:19;;;;;;;17.05;8.70;;;;;;;4.40;67.20;101053.31;5137559;27;20458;-76
2022/02/10 04:10:58;;;;;;;22.20;12.80;;;;;;;3.83;69.96;101066.22;5137227;27;20031;-74
2022/02/10 04:14:13;;;;;;;30.07;14.80;;;;;;;3.87;70.56;101074.75;5136680;27;20046;-75
2022/02/10 04:21:59;;;;;;;23.00;12.77;;;;;;;4.07;70.17;101064.81;5139266;27;20522;-76
2022/02/10 04:27:01;;;;;;;25.03;11.47;;;;;;;4.05;68.87;101084.16;5136883;27;20031;-78
2022/02/10 04:30:03;;;;;;;21.80;12.17;;;;;;;3.59;70.56;101071.06;5135680;27;20344;-75
2022/02/10 04:37:21;;;;;;;23.50;12.57;;;;;;;3.52;71.96;101091.50;5138211;27;20103;-75
2022/02/10 05:16:16;;;;;;;29.10;15.63;;;;;;;4.23;69.57;101111.97;5134934;27;20035;-75
2022/02/10 05:21:46;;;;;;;31.80;16.42;;;;;;;4.37;67.94;101112.03;5136136;27;20039;-73
2022/02/10 05:34:46;;;;;;;47.17;23.60;;;;;;;4.37;68.97;101113.81;5141765;27;20083;-76
2022/02/10 05:37:11;;;;;;;43.97;23.03;;;;;;;4.36;67.98;101112.97;5141027;27;20031;-75
2022/02/10 05:39:42;;;;;;;56.63;28.67;;;;;;;4.39;67.70;101114.56;5138531;27;20366;-73
2022/02/10 05:44:51;;;;;;;73.00;38.37;;;;;;;4.28;69.82;101115.19;5140411;27;20034;-76
2022/02/10 05:52:51;;;;;;;79.00;37.77;;;;;;;4.27;70.42;101123.13;5142001;27;20022;-77
2022/02/10 05:55:35;;;;;;;82.10;38.07;;;;;;;4.35;70.76;101134.03;5138246;27;20031;-76
2022/02/10 06:01:39;;;;;;;46.30;23.00;;;;;;;4.61;69.97;101128.13;5140211;27;20035;-73
2022/02/10 06:52:28;;;;;;;50.28;20.13;;;;;;;8.16;59.97;101136.19;5139436;27;20020;-79
2022/02/10 07:05:50;;;;;;;35.28;18.05;;;;;;;9.06;56.93;101136.50;5132421;27;20023;-76
2022/02/10 07:11:05;;;;;;;17.98;9.45;;;;;;;9.73;54.67;101140.00;5130786;27;20060;-77
2022/02/10 07:13:50;;;;;;;35.80;12.38;;;;;;;10.08;53.74;101142.47;5132712;28;20031;-76
2022/02/10 07:46:27;;;;;;;24.90;11.98;;;;;;;11.32;47.33;101132.06;5077297;28;20078;-74
2022/02/10 07:50:03;;;;;;;21.23;10.85;;;;;;;10.83;47.83;101134.47;5112434;27;20338;-78
2022/02/10 07:58:09;;;;;;;25.00;12.80;;;;;;;11.32;46.42;101140.03;5138053;27;20046;-75
2022/02/10 08:49:44;;;;;;;11.73;7.93;;;;;;;12.07;44.20;101136.97;5143330;27;20027;-76
2022/02/10 08:49:57;;;;;;;14.93;8.93;;;;;;;12.74;43.58;101134.31;5142163;27;20098;-75
2022/02/10 09:03:20;;;;;;;20.33;12.38;;;;;;;12.66;43.56;101136.84;5142231;27;20072;-75
2022/02/10 09:16:54;;;;;;;18.23;9.55;;;;;;;12.26;46.13;101138.78;5141501;27;20030;-76
2022/02/10 09:19:37;;;;;;;19.55;9.68;;;;;;;12.15;45.97;101126.50;5140831;27;20035;-75
2022/02/10 09:47:27;;;;;;;114.47;42.22;;;;;;;12.22;47.41;101137.41;5140989;27;20132;-75
2022/02/10 10:02:44;;;;;;;20.20;9.75;;;;;;;12.20;48.62;101100.34;5136358;27;20337;-76
2022/02/10 10:13:25;;;;;;;16.00;9.85;;;;;;;12.19;48.69;101076.59;5135960;27;20094;-74
2022/02/10 10:18:42;;;;;;;18.15;9.98;;;;;;;12.09;49.08;101060.66;5136088;27;20050;-75
2022/02/10 10:21:41;;;;;;;14.43;9.07;;;;;;;12.08;49.49;101051.88;5134046;27;20198;-75
2022/02/10 10:51:52;;;;;;;18.15;10.13;;;;;;;12.33;49.21;100988.53;5133864;27;20039;-75
2022/02/10 10:57:01;;;;;;;14.90;9.48;;;;;;;12.36;49.41;100986.41;5131685;28;20061;-75
2022/02/10 11:39:14;;;;;;;15.20;8.30;;;;;;;12.39;48.91;100922.38;5136147;27;20318;-74
2022/02/10 11:42:25;;;;;;;14.05;7.70;;;;;;;12.41;48.87;100925.72;5138102;27;20039;-75
2022/02/10 12:01:30;;;;;;;7.90;5.43;;;;;;;13.01;44.68;100890.78;5135786;27;20221;-75
2022/02/10 14:12:44;;;;;;;7.05;3.78;;;;;;;13.08;38.85;100815.56;5141946;27;20027;-75
2022/02/10 14:15:06;;;;;;;7.63;4.10;;;;;;;13.47;38.86;100804.63;5140741;27;20301;-75
2022/02/10 14:17:37;;;;;;;7.13;3.97;;;;;;;13.33;38.52;100816.66;5140526;27;20027;-76
2022/02/10 14:20:22;;;;;;;11.30;4.18;;;;;;;13.21;40.05;100809.06;5140392;27;20040;-76
2022/02/10 14:23:04;;;;;;;6.70;4.00;;;;;;;12.83;39.47;100778.28;5141352;27;20057;-76
2022/02/10 14:28:21;;;;;;;9.63;4.25;;;;;;;12.95;38.93;100801.81;5120324;27;20053;-75
2022/02/10 14:30:50;;;;;;;8.57;4.50;;;;;;;13.08;39.43;100798.78;5139453;27;20128;-75
2022/02/10 14:33:22;;;;;;;7.65;3.97;;;;;;;13.08;38.48;100807.59;5140557;27;20057;-76
2022/02/10 14:36:02;;;;;;;5.85;3.67;;;;;;;13.19;38.59;100808.38;5139701;28;20054;-76
2022/02/10 15:17:14;;;;;;;7.32;3.92;;;;;;;13.25;39.49;100791.81;5138864;27;20040;-75
2022/02/10 15:52:14;;;;;;;9.73;5.28;;;;;;;12.68;42.88;100778.81;5139056;27;20042;-74
2022/02/10 16:11:09;;;;;;;12.35;5.57;;;;;;;12.02;46.89;100786.97;5137817;27;20205;-75
2022/02/10 16:14:35;;;;;;;14.48;5.18;;;;;;;11.78;47.70;100778.66;5136848;27;20038;-75
2022/02/10 16:18:50;;;;;;;8.32;5.60;;;;;;;11.35;49.75;100779.97;5137919;27;20023;-75
2022/02/10 16:21:45;;;;;;;16.88;6.75;;;;;;;11.22;49.77;100787.38;5138621;27;20027;-75
2022/02/10 16:24:17;;;;;;;;;;;;;;;11.01;49.63;100789.34;5138335;27;20272;-75
2022/02/10 16:26:55;;;;;;;17.60;8.20;;;;;;;10.68;50.10;100786.09;5142724;27;19982;-76
2022/02/10 16:29:26;;;;;;;26.70;11.60;;;;;;;10.67;50.97;100789.72;5139239;27;20039;-78
2022/02/10 16:31:53;;;;;;;29.45;12.60;;;;;;;10.51;51.37;100792.06;5138397;27;20034;-78
2022/02/10 16:34:19;;;;;;;34.33;15.85;;;;;;;10.43;51.79;100797.19;5137409;27;20343;-76
2022/02/10 16:36:46;;;;;;;26.27;12.27;;;;;;;10.24;51.34;100755.59;5136578;27;20050;-77
2022/02/10 16:39:15;;;;;;;27.23;13.13;;;;;;;10.44;51.72;100794.41;5136240;27;20023;-79
2022/02/10 16:41:40;;;;;;;26.00;11.88;;;;;;;10.27;51.96;100773.03;5137440;27;20034;-79
2022/02/10 16:44:06;;;;;;;22.17;10.95;;;;;;;10.53;51.61;100790.97;5136848;27;20072;-78
2022/02/10 16:46:32;;;;;;;24.92;10.55;;;;;;;10.49;51.75;100784.25;5136113;27;20039;-78
2022/02/10 16:48:58;;;;;;;19.45;9.90;;;;;;;10.45;51.92;100797.91;5136728;27;20332;-78
2022/02/10 16:51:25;;;;;;;25.10;11.50;;;;;;;10.30;52.63;100786.81;5134276;27;20041;-78
2022/02/10 16:53:57;;;;;;;25.05;11.73;;;;;;;10.42;52.22;100772.53;5136355;27;20034;-78
2022/02/10 16:56:26;;;;;;;17.92;10.05;;;;;;;10.19;52.53;100779.78;5137157;27;20047;-76
2022/02/10 17:01:45;;;;;;;21.65;10.00;;;;;;;10.09;53.69;100796.63;5133814;27;20046;-77
2022/02/10 17:15:45;;;;;;;27.90;12.48;;;;;;;9.75;54.95;100806.63;5136315;27;20029;-76
2022/02/10 17:18:00;;;;;;;27.35;13.60;;;;;;;9.60;55.50;100809.59;5137807;27;20042;-78
2022/02/10 17:20:49;;;;;;;35.00;13.50;;;;;;;9.62;55.55;100787.47;5136970;27;20110;-75
2022/02/10 17:26:07;;;;;;;29.05;13.52;;;;;;;10.08;54.13;100806.34;5135167;27;20359;-77
2022/02/10 17:28:34;;;;;;;27.30;13.98;;;;;;;10.00;53.89;100800.91;5135101;27;20038;-77
2022/02/10 17:31:19;;;;;;;30.08;13.95;;;;;;;10.16;53.91;100801.25;5137579;27;20084;-76
2022/02/10 17:37:03;;;;;;;27.50;12.70;;;;;;;10.06;53.95;100802.16;5124614;27;19942;-77
2022/02/10 17:52:37;;;;;;;26.38;13.23;;;;;;;9.69;55.91;100813.25;5134286;27;20050;-77
2022/02/10 17:55:09;;;;;;;28.58;15.70;;;;;;;9.77;55.77;100813.44;5134914;27;20098;-76
2022/02/10 17:57:35;;;;;;;37.53;18.33;;;;;;;9.85;55.56;100816.28;5136020;27;20058;-75
2022/02/10 18:00:00;;;;;;;35.33;18.02;;;;;;;9.87;54.56;100798.47;5134130;27;20360;-75
2022/02/10 18:02:26;;;;;;;40.92;17.17;;;;;;;10.05;55.25;100819.03;5131298;27;20076;-75
2022/02/10 18:04:51;;;;;;;34.63;16.00;;;;;;;10.10;54.65;100812.34;5136367;27;20334;-74
2022/02/10 18:07:17;;;;;;;39.58;17.40;;;;;;;9.93;54.83;100797.94;5134461;27;20079;-74
2022/02/10 18:13:18;;;;;;;43.13;20.30;;;;;;;9.97;55.25;100798.50;5133232;27;20079;-75
2022/02/10 18:15:37;;;;;;;88.63;34.17;;;;;;;10.06;55.17;100813.59;5134987;27;20461;-76
2022/02/10 18:18:11;;;;;;;103.75;37.83;;;;;;;10.11;55.15;100813.19;5134761;27;20054;-76
2022/02/10 18:20:41;;;;;;;100.00;38.13;;;;;;;10.02;55.78;100824.56;5133627;27;20342;-75
2022/02/10 18:23:18;;;;;;;106.05;35.97;;;;;;;9.81;55.73;100808.75;5133371;27;20084;-77
2022/02/10 18:26:05;;;;;;;83.82;33.42;;;;;;;9.82;55.62;100823.63;5136978;27;20041;-74
2022/02/10 18:28:38;;;;;;;82.65;32.05;;;;;;;9.71;55.15;100802.56;5138825;27;20332;-75
2022/02/10 18:34:05;;;;;;;80.88;35.45;;;;;;;9.58;56.39;100813.34;5131947;27;20027;-76
2022/02/10 19:09:10;;;;;;;115.30;45.65;;;;;;;9.23;57.01;100843.53;5142618;27;20087;-78
2022/02/10 19:11:39;;;;;;;177.60;61.95;;;;;;;9.15;57.25;100840.69;5142118;27;20042;-77
2022/02/10 19:14:06;;;;;;;166.82;55.10;;;;;;;9.08;57.39;100842.16;5141440;27;20023;-79
2022/02/10 19:16:32;;;;;;;103.13;40.67;;;;;;;8.95;57.68;100833.53;5141391;28;20038;-77
2022/02/10 19:18:57;;;;;;;116.13;47.90;;;;;;;8.93;57.48;100822.25;5141108;28;20247;-79
2022/02/10 19:21:23;;;;;;;246.35;102.95;;;;;;;8.91;57.70;100827.69;5142165;27;20411;-77
2022/02/10 19:23:48;;;;;;;207.15;80.00;;;;;;;8.94;57.42;100842.44;5142552;27;20019;-77
2022/02/10 19:26:14;;;;;;;260.42;97.13;;;;;;;8.78;58.18;100831.44;5142126;27;20060;-79
2022/02/10 19:28:39;;;;;;;287.80;90.40;;;;;;;8.75;58.33;100842.25;5142556;27;20031;-80
2022/02/10 19:31:07;;;;;;;360.45;106.38;;;;;;;8.69;58.43;100845.38;5144802;27;20039;-77
2022/02/10 19:33:32;;;;;;;377.23;119.63;;;;;;;8.81;58.31;100834.66;5144822;27;20068;-77
2022/02/10 19:35:58;;;;;;;218.07;89.75;;;;;;;8.49;58.71;100842.53;5142788;27;20026;-79
2022/02/10 19:38:26;;;;;;;182.70;66.35;;;;;;;8.30;59.52;100829.06;5143530;27;20039;-79
2022/02/10 19:40:53;;;;;;;164.93;54.67;;;;;;;8.57;58.89;100858.59;5140864;27;20023;-78
2022/02/10 19:43:20;;;;;;;134.15;49.00;;;;;;;8.17;60.39;100866.09;5142959;27;20027;-76
2022/02/10 19:45:47;;;;;;;91.22;33.72;;;;;;;8.14;60.43;100849.69;5142590;27;20351;-77
2022/02/10 19:48:13;;;;;;;51.25;23.85;;;;;;;7.89;60.54;100862.13;5142491;27;20194;-77
2022/02/10 19:50:39;;;;;;;43.97;19.65;;;;;;;7.61;61.75;100852.00;5142287;27;20108;-77
2022/02/10 19:53:08;;;;;;;48.08;21.55;;;;;;;7.29;63.37;100852.63;5141845;27;20113;-77
2022/02/10 19:55:38;;;;;;;45.30;20.58;;;;;;;7.53;62.33;100841.19;5142423;27;20223;-77
2022/02/10 19:58:10;;;;;;;42.85;21.88;;;;;;;7.61;61.63;100854.63;5142266;27;20031;-78
2022/02/10 20:00:42;;;;;;;68.65;24.75;;;;;;;7.87;60.37;100858.78;5138692;27;20031;-79
2022/02/10 20:03:19;;;;;;;55.78;24.63;;;;;;;7.67;61.26;100857.66;5141424;27;20330;-78
2022/02/10 20:05:48;;;;;;;67.50;31.45;;;;;;;7.63;60.67;100856.22;5141459;27;20031;-77
2022/02/10 20:08:16;;;;;;;59.28;28.73;;;;;;;7.58;61.42;100850.44;5140638;27;20097;-76
2022/02/10 20:10:42;;;;;;;60.45;28.75;;;;;;;7.46;61.40;100847.88;5141414;27;20105;-75
2022/02/10 20:13:07;;;;;;;67.93;29.90;;;;;;;7.50;60.64;100846.69;5137008;27;20194;-73
2022/02/10 20:15:36;;;;;;;64.38;28.40;;;;;;;7.59;60.53;100843.38;5134606;27;20037;-73
2022/02/10 20:18:04;;;;;;;58.70;26.30;;;;;;;7.47;60.52;100846.94;5133314;27;20174;-76
2022/02/10 20:20:30;;;;;;;62.05;24.95;;;;;;;7.39;60.87;100842.25;5133989;27;20023;-75
2022/02/10 20:22:56;;;;;;;61.85;26.48;;;;;;;7.25;62.06;100847.66;5132324;27;20340;-74
2022/02/10 20:25:22;;;;;;;60.75;25.50;;;;;;;7.30;61.46;100842.94;5133903;27;20047;-75
2022/02/10 20:27:48;;;;;;;59.97;26.83;;;;;;;7.39;61.39;100855.41;5134061;27;20030;-75
2022/02/10 20:30:14;;;;;;;59.83;26.95;;;;;;;7.41;60.87;100850.88;5134083;27;20052;-75
2022/02/10 20:32:39;;;;;;;85.38;32.25;;;;;;;6.91;61.88;100833.50;5134838;27;20049;-77
2022/02/10 20:35:07;;;;;;;112.40;37.88;;;;;;;6.82;63.00;100850.81;5134079;27;20198;-76
2022/02/10 20:37:32;;;;;;;80.38;33.67;;;;;;;6.84;63.73;100851.53;5134822;27;20806;-78
2022/02/10 20:39:57;;;;;;;66.60;29.92;;;;;;;7.03;62.86;100851.03;5135074;27;20232;-78
2022/02/10 20:42:23;;;;;;;62.72;28.50;;;;;;;7.01;62.67;100843.25;5133570;27;20079;-78
2022/02/10 20:44:54;;;;;;;63.45;29.73;;;;;;;7.01;62.09;100839.78;5135781;27;20324;-78
2022/02/10 20:47:21;;;;;;;80.75;31.17;;;;;;;6.97;63.12;100846.22;5135339;27;20103;-79
2022/02/10 20:49:47;;;;;;;97.40;36.53;;;;;;;7.01;61.97;100845.06;5132988;27;20032;-79
2022/02/10 20:52:14;;;;;;;94.50;36.45;;;;;;;7.04;62.20;100844.81;5134216;27;20023;-80
2022/02/10 20:54:40;;;;;;;70.50;32.33;;;;;;;6.96;62.40;100840.13;5135768;27;20149;-79
2022/02/10 20:57:06;;;;;;;68.88;31.20;;;;;;;6.95;61.91;100835.81;5141473;27;20194;-76
2022/02/10 20:59:45;;;;;;;64.50;31.35;;;;;;;6.98;62.22;100832.09;5140389;27;20090;-77
2022/02/10 21:02:14;;;;;;;66.50;31.90;;;;;;;6.92;62.01;100838.66;5140466;27;20015;-77
2022/02/10 21:04:49;;;;;;;67.32;33.42;;;;;;;6.88;62.05;100833.72;5141718;27;20034;-77
2022/02/10 21:07:31;;;;;;;81.90;34.55;;;;;;;6.60;63.41;100812.03;5142132;27;20039;-77
2022/02/10 21:10:00;;;;;;;62.25;26.17;;;;;;;6.74;63.01;100824.22;5141782;27;20286;-77
2022/02/10 21:12:34;;;;;;;49.33;23.27;;;;;;;6.72;62.77;100819.06;5140479;27;20019;-77
2022/02/10 21:15:05;;;;;;;56.67;25.05;;;;;;;6.88;62.44;100824.03;5140899;27;20072;-77
2022/02/10 21:17:31;;;;;;;48.83;22.38;;;;;;;6.80;62.14;100826.41;5134785;27;20035;-79
2022/02/10 21:20:01;;;;;;;42.60;22.25;;;;;;;6.75;63.26;100823.25;5131504;27;20029;-79
2022/02/10 21:22:27;;;;;;;79.30;28.15;;;;;;;6.81;62.50;100817.53;5131037;27;20064;-78
2022/02/10 21:25:00;;;;;;;77.32;27.00;;;;;;;6.60;63.01;100822.56;5124162;27;20107;-76
2022/02/10 21:27:40;;;;;;;80.38;26.95;;;;;;;6.52;63.08;100826.69;5128399;27;20035;-75
2022/02/10 21:30:07;;;;;;;62.00;21.90;;;;;;;6.40;64.06;100824.00;5132340;27;20031;-74
2022/02/10 21:32:38;;;;;;;39.20;19.23;;;;;;;6.50;63.50;100829.44;5129187;27;20030;-74
2022/02/10 21:37:45;;;;;;;55.03;24.10;;;;;;;6.59;62.07;100823.53;5126726;27;20095;-72
2022/02/10 22:19:46;;;;;;;76.50;33.85;;;;;;;6.01;64.52;100801.31;5123641;28;20030;-75
2022/02/10 22:22:19;;;;;;;71.28;28.45;;;;;;;6.11;63.02;100788.38;5137069;27;20027;-75
2022/02/10 22:24:44;;;;;;;80.10;30.95;;;;;;;6.03;63.34;100783.66;5127750;27;20052;-75
2022/02/10 22:27:10;;;;;;;96.70;34.17;;;;;;;6.12;62.91;100795.31;5123347;28;20038;-74
2022/02/10 22:29:46;;;;;;;104.03;36.30;;;;;;;5.99;64.20;100799.75;5122179;27;20028;-75
2022/02/10 22:32:27;;;;;;;95.70;35.28;;;;;;;6.15;63.01;100789.00;5123529;28;20026;-75
2022/02/10 22:34:54;;;;;;;95.60;31.35;;;;;;;6.19;62.83;100783.41;5122041;28;20055;-76
2022/02/10 22:37:21;;;;;;;84.90;32.25;;;;;;;6.06;63.35;100780.81;5122098;28;20050;-74
2022/02/10 22:39:48;;;;;;;95.40;35.92;;;;;;;5.89;63.91;100778.50;5123028;28;20035;-75
2022/02/10 22:42:14;;;;;;;94.20;34.42;;;;;;;5.85;64.19;100760.41;5122436;28;20090;-75
2022/02/10 22:44:40;;;;;;;86.70;33.63;;;;;;;5.96;63.64;100766.63;5130296;28;20034;-75
2022/02/10 22:47:08;;;;;;;99.95;36.60;;;;;;;5.86;63.65;100759.47;5124814;27;20321;-76
2022/02/10 22:49:34;;;;;;;90.20;31.88;;;;;;;5.81;63.81;100754.53;5131019;28;20035;-76
2022/02/10 22:52:00;;;;;;;76.78;31.42;;;;;;;5.86;63.79;100756.81;5129001;27;20027;-73
2022/02/10 22:54:26;;;;;;;71.95;29.83;;;;;;;5.91;63.36;100760.84;5127682;28;20031;-75
2022/02/10 22:56:52;;;;;;;68.43;26.13;;;;;;;5.87;62.53;100763.75;5122521;27;20333;-75
2022/02/10 22:59:21;;;;;;;61.20;26.08;;;;;;;5.88;62.50;100763.66;5121166;28;20031;-75
2022/02/10 23:01:47;;;;;;;72.70;27.23;;;;;;;5.81;63.29;100765.03;5127022;28;20023;-76
2022/02/10 23:04:13;;;;;;;75.38;28.35;;;;;;;5.80;62.36;100760.72;5121764;28;20031;-74
2022/02/10 23:06:39;;;;;;;70.80;28.42;;;;;;;5.58;61.63;100753.50;5127127;27;20035;-76
2022/02/10 23:09:30;;;;;;;66.82;26.73;;;;;;;5.48;63.13;100759.47;5130305;27;20031;-77
2022/02/10 23:11:57;;;;;;;86.45;36.03;;;;;;;5.29;64.55;100733.63;5133556;27;20110;-75
2022/02/10 23:14:23;;;;;;;110.97;51.20;;;;;;;5.54;64.30;100746.75;5126902;27;20072;-76
2022/02/10 23:16:48;;;;;;;104.65;44.40;;;;;;;5.54;64.48;100732.78;5132346;27;20031;-74
2022/02/10 23:19:15;;;;;;;89.47;37.13;;;;;;;5.48;62.56;100735.84;5126353;27;20500;-77
2022/02/10 23:21:40;;;;;;;81.28;33.58;;;;;;;5.41;62.04;100732.78;5124992;28;20031;-73
2022/02/10 23:24:06;;;;;;;77.22;32.35;;;;;;;5.26;63.37;100731.22;5124070;27;20241;-77
2022/02/10 23:26:32;;;;;;;85.10;31.63;;;;;;;5.23;63.92;100726.16;5130107;27;20127;-72
2022/02/10 23:28:58;;;;;;;77.25;29.95;;;;;;;5.24;63.56;100728.69;5128411;27;20239;-77
2022/02/10 23:31:26;;;;;;;73.38;27.63;;;;;;;5.24;63.25;100720.81;5134926;27;20254;-76
2022/02/10 23:33:56;;;;;;;84.20;31.08;;;;;;;5.08;63.83;100699.13;5136515;27;20026;-73
2022/02/10 23:44:16;;;;;;;76.53;30.73;;;;;;;4.91;65.42;100718.63;5129407;27;20343;-76
2022/02/10 23:46:43;;;;;;;67.20;27.70;;;;;;;4.87;65.13;100684.81;5124659;28;20098;-76
2022/02/10 23:49:10;;;;;;;73.45;29.50;;;;;;;4.92;64.61;100711.59;5124676;27;20035;-76
2022/02/10 23:51:45;;;;;;;78.68;27.63;;;;;;;5.04;64.49;100711.63;5129828;27;20384;-76
2022/02/10 23:54:11;;;;;;;65.85;26.25;;;;;;;5.05;63.97;100710.69;5130816;27;20031;-76
2022/02/10 23:56:42;;;;;;;70.07;26.67;;;;;;;4.89;64.21;100701.31;5130414;27;20050;-77
2022/02/10 23:59:19;;;;;;;67.10;25.27;;;;;;;5.01;63.38;100718.88;5126417;27;20096;-73
